Wetterdaten: Woche 15.04.13 - 21.04.13 (KW16)
Datum Zeit Temp. A. Feuchte A. Luftdruck Regen Wind Richtung Taupunkt Windchill Windben
15.04.2013 00:00 13,3 C 81 % 1021,9 hPa 0,0 l/m 2,9 km/h (1 Bft) SO 10,0 C 13,3 C 6,3 km/h (2 Bft)
15.04.2013 01:00 12,9 C 81 % 1021,7 hPa 0,0 l/m 2,6 km/h (1 Bft) SO 9,6 C 12,9 C 6,7 km/h (2 Bft)
15.04.2013 02:00 11,4 C 85 % 1021,3 hPa 0,0 l/m 0,3 km/h (0 Bft) O-SO 8,9 C 11,4 C 0,9 km/h (0 Bft)
15.04.2013 03:00 11,5 C 85 % 1020,8 hPa 0,0 l/m 1,5 km/h (1 Bft) SO 9,0 C 11,5 C 4,3 km/h (1 Bft)
15.04.2013 04:00 11,3 C 85 % 1020,4 hPa 0,0 l/m 0,4 km/h (0 Bft) SO 8,8 C 11,3 C 1,2 km/h (1 Bft)
15.04.2013 05:00 10,1 C 88 % 1019,9 hPa 0,0 l/m 0,4 km/h (0 Bft) SO 8,1 C 10,1 C 0,9 km/h (0 Bft)
15.04.2013 06:00 9,9 C 88 % 1019,7 hPa 0,0 l/m 1,0 km/h (0 Bft) SO 8,0 C 9,9 C 3,5 km/h (1 Bft)
15.04.2013 07:00 10,6 C 87 % 1019,8 hPa 0,0 l/m 0,0 km/h (0 Bft) N 8,6 C 10,6 C 0,0 km/h (0 Bft)
15.04.2013 08:00 14,1 C 77 % 1019,8 hPa 0,0 l/m 1,5 km/h (1 Bft) S-SO 10,1 C 14,1 C 3,6 km/h (1 Bft)
15.04.2013 09:00 16,5 C 69 % 1019,5 hPa 0,0 l/m 4,2 km/h (1 Bft) SO 10,8 C 16,4 C 8,6 km/h (2 Bft)
15.04.2013 10:00 18,9 C 61 % 1019,3 hPa 0,0 l/m 6,7 km/h (2 Bft) S 11,3 C 18,6 C 12,4 km/h (2 Bft)
15.04.2013 11:00 20,9 C 56 % 1018,8 hPa 0,0 l/m 6,0 km/h (2 Bft) SW 11,8 C 20,8 C 12,1 km/h (2 Bft)
15.04.2013 12:00 22,7 C 50 % 1018,4 hPa 0,0 l/m 5,0 km/h (1 Bft) SW 11,8 C 22,7 C 10,2 km/h (2 Bft)
15.04.2013 13:00 24,1 C 46 % 1018,1 hPa 0,0 l/m 6,3 km/h (2 Bft) SW 11,5 C 24,0 C 12,8 km/h (3 Bft)
15.04.2013 14:00 24,6 C 44 % 1017,7 hPa 0,0 l/m 6,0 km/h (2 Bft) SW 11,5 C 24,5 C 12,4 km/h (2 Bft)
15.04.2013 15:00 25,4 C 42 % 1017,2 hPa 0,0 l/m 5,1 km/h (1 Bft) SW 11,4 C 25,4 C 11,4 km/h (2 Bft)
15.04.2013 16:00 25,8 C 38 % 1016,9 hPa 0,0 l/m 4,7 km/h (1 Bft) S 10,6 C 25,8 C 9,9 km/h (2 Bft)
15.04.2013 17:00 24,8 C 43 % 1016,8 hPa 0,0 l/m 4,3 km/h (1 Bft) NW 11,3 C 24,6 C 9,6 km/h (2 Bft)
15.04.2013 18:00 22,0 C 58 % 1017,2 hPa 0,0 l/m 10,0 km/h (2 Bft) N-NW 13,2 C 20,9 C 17,3 km/h (3 Bft)
15.04.2013 19:00 20,2 C 64 % 1017,8 hPa 0,0 l/m 12,8 km/h (3 Bft) N-NO 13,1 C 18,0 C 19,7 km/h (3 Bft)
15.04.2013 20:00 17,7 C 64 % 1019,1 hPa 0,0 l/m 15,9 km/h (3 Bft) N-NW 10,7 C 14,3 C 24,5 km/h (4 Bft)
15.04.2013 21:00 16,5 C 67 % 1019,7 hPa 0,0 l/m 12,1 km/h (2 Bft) N-NW 10,4 C 14,1 C 20,0 km/h (4 Bft)
15.04.2013 22:00 14,0 C 85 % 1019,7 hPa 3,8 l/m 8,1 km/h (2 Bft) NO 11,4 C 12,8 C 14,2 km/h (3 Bft)
15.04.2013 23:00 12,6 C 93 % 1019,3 hPa 0,0 l/m 5,4 km/h (2 Bft) N-NW 11,4 C 12,5 C 8,4 km/h (2 Bft)
16.04.2013 00:00 12,3 C 95 % 1019,3 hPa 0,0 l/m 1,7 km/h (1 Bft) NW 11,5 C 12,3 C 3,6 km/h (1 Bft)
16.04.2013 01:00 11,9 C 95 % 1019,1 hPa 0,0 l/m 0,1 km/h (0 Bft) N 11,2 C 11,9 C 0,4 km/h (0 Bft)
16.04.2013 02:00 11,8 C 96 % 1019,0 hPa 0,0 l/m 0,0 km/h (0 Bft) N 11,2 C 11,8 C 0,0 km/h (0 Bft)
16.04.2013 03:00 11,7 C 97 % 1019,0 hPa 0,0 l/m 0,0 km/h (0 Bft) N 11,2 C 11,7 C 0,0 km/h (0 Bft)
16.04.2013 04:00 11,7 C 97 % 1018,9 hPa 0,0 l/m 0,0 km/h (0 Bft) W-NW 11,2 C 11,7 C 0,3 km/h (0 Bft)
16.04.2013 05:00 11,7 C 97 % 1018,8 hPa 0,0 l/m 0,2 km/h (0 Bft) NW 11,3 C 11,7 C 0,7 km/h (0 Bft)
16.04.2013 06:00 11,8 C 97 % 1018,9 hPa 0,0 l/m 0,0 km/h (0 Bft) N 11,3 C 11,8 C 0,0 km/h (0 Bft)
16.04.2013 07:00 11,8 C 97 % 1019,0 hPa 0,0 l/m 0,1 km/h (0 Bft) N 11,4 C 11,8 C 0,4 km/h (0 Bft)
16.04.2013 08:00 12,0 C 97 % 1018,9 hPa 0,0 l/m 0,0 km/h (0 Bft) W-SW 11,5 C 12,0 C 0,1 km/h (0 Bft)
16.04.2013 09:00 12,5 C 97 % 1018,9 hPa 0,0 l/m 0,4 km/h (0 Bft) W 12,1 C 12,5 C 1,5 km/h (1 Bft)
16.04.2013 10:00 13,5 C 97 % 1018,8 hPa 0,2 l/m 0,0 km/h (0 Bft) SO 13,0 C 13,5 C 0,0 km/h (0 Bft)
16.04.2013 11:00 16,0 C 87 % 1018,6 hPa 0,0 l/m 1,7 km/h (1 Bft) S-SO 13,7 C 16,0 C 5,3 km/h (1 Bft)
16.04.2013 12:00 17,7 C 78 % 1018,3 hPa 0,0 l/m 3,6 km/h (1 Bft) SW 13,8 C 17,7 C 9,7 km/h (2 Bft)
16.04.2013 13:00 18,5 C 74 % 1018,1 hPa 0,0 l/m 5,6 km/h (2 Bft) S-SW 13,7 C 18,4 C 10,7 km/h (2 Bft)
16.04.2013 14:00 19,2 C 63 % 1017,7 hPa 0,0 l/m 5,1 km/h (1 Bft) S-SW 12,0 C 19,1 C 12,4 km/h (2 Bft)
16.04.2013 15:00 19,8 C 60 % 1017,3 hPa 0,0 l/m 4,8 km/h (1 Bft) W-NW 11,7 C 19,7 C 10,9 km/h (2 Bft)
16.04.2013 16:00 20,1 C 52 % 1017,0 hPa 0,0 l/m 5,4 km/h (1 Bft) S-SW 10,0 C 19,9 C 14,2 km/h (3 Bft)
16.04.2013 17:00 20,1 C 47 % 1017,0 hPa 0,0 l/m 5,7 km/h (2 Bft) W-SW 8,6 C 20,1 C 14,9 km/h (3 Bft)
16.04.2013 18:00 19,5 C 49 % 1017,1 hPa 0,0 l/m 4,4 km/h (1 Bft) W-NW 8,5 C 19,5 C 11,6 km/h (2 Bft)
16.04.2013 19:00 18,6 C 54 % 1017,6 hPa 0,0 l/m 1,6 km/h (1 Bft) W 9,0 C 18,6 C 5,1 km/h (1 Bft)
16.04.2013 20:00 17,5 C 55 % 1018,2 hPa 0,0 l/m 2,0 km/h (1 Bft) W-NW 8,2 C 17,5 C 7,0 km/h (2 Bft)
16.04.2013 21:00 16,1 C 53 % 1018,6 hPa 0,0 l/m 0,3 km/h (0 Bft) N 6,4 C 16,1 C 1,1 km/h (0 Bft)
16.04.2013 22:00 14,5 C 59 % 1018,7 hPa 0,0 l/m 0,0 km/h (0 Bft) N 6,5 C 14,5 C 0,0 km/h (0 Bft)
16.04.2013 23:00 13,7 C 66 % 1019,1 hPa 0,0 l/m 0,0 km/h (0 Bft) N 7,5 C 13,7 C 0,0 km/h (0 Bft)
17.04.2013 00:00 13,6 C 68 % 1019,5 hPa 0,0 l/m 0,4 km/h (0 Bft) NW 7,8 C 13,6 C 0,9 km/h (0 Bft)
17.04.2013 01:00 13,7 C 70 % 1020,1 hPa 0,0 l/m 3,5 km/h (1 Bft) NW 8,4 C 13,6 C 7,2 km/h (2 Bft)
17.04.2013 02:00 13,3 C 73 % 1020,4 hPa 0,0 l/m 0,6 km/h (0 Bft) W 8,6 C 13,3 C 1,8 km/h (1 Bft)
17.04.2013 03:00 12,4 C 78 % 1020,7 hPa 0,0 l/m 0,0 km/h (0 Bft) N 8,6 C 12,4 C 0,0 km/h (0 Bft)
17.04.2013 04:00 9,8 C 86 % 1020,9 hPa 0,0 l/m 0,0 km/h (0 Bft) N 7,6 C 9,8 C 0,0 km/h (0 Bft)
17.04.2013 05:00 9,2 C 90 % 1020,9 hPa 0,0 l/m 0,0 km/h (0 Bft) N 7,6 C 9,2 C 0,0 km/h (0 Bft)
17.04.2013 06:00 10,3 C 89 % 1021,4 hPa 0,0 l/m 1,4 km/h (1 Bft) S-SW 8,6 C 10,3 C 4,5 km/h (1 Bft)
17.04.2013 07:00 11,7 C 86 % 1021,7 hPa 0,0 l/m 3,1 km/h (1 Bft) S-SW 9,5 C 11,7 C 8,6 km/h (2 Bft)
17.04.2013 08:00 12,2 C 86 % 1022,1 hPa 0,0 l/m 2,6 km/h (1 Bft) SW 9,9 C 12,2 C 7,6 km/h (2 Bft)
17.04.2013 09:00 12,8 C 85 % 1022,4 hPa 0,0 l/m 3,7 km/h (1 Bft) SW 10,3 C 12,8 C 8,2 km/h (2 Bft)
17.04.2013 10:00 14,1 C 82 % 1022,3 hPa 0,0 l/m 4,6 km/h (1 Bft) S 11,0 C 14,1 C 10,3 km/h (2 Bft)
17.04.2013 11:00 15,5 C 78 % 1022,1 hPa 0,0 l/m 6,1 km/h (2 Bft) SW 11,6 C 15,4 C 14,5 km/h (3 Bft)
17.04.2013 12:00 16,5 C 74 % 1021,9 hPa 0,0 l/m 6,2 km/h (2 Bft) W 11,8 C 16,3 C 14,5 km/h (3 Bft)
17.04.2013 13:00 16,9 C 74 % 1021,6 hPa 0,0 l/m 5,4 km/h (1 Bft) SW 12,2 C 16,9 C 12,3 km/h (2 Bft)
17.04.2013 14:00 17,7 C 71 % 1021,0 hPa 0,0 l/m 5,3 km/h (1 Bft) SW 12,4 C 17,7 C 12,6 km/h (3 Bft)
17.04.2013 15:00 18,3 C 68 % 1020,4 hPa 0,0 l/m 5,0 km/h (1 Bft) S-SW 12,3 C 18,2 C 10,7 km/h (2 Bft)
17.04.2013 16:00 18,2 C 68 % 1019,9 hPa 0,0 l/m 2,7 km/h (1 Bft) W-SW 12,2 C 18,2 C 7,5 km/h (2 Bft)
17.04.2013 17:00 18,6 C 67 % 1019,4 hPa 0,0 l/m 2,1 km/h (1 Bft) S-SW 12,5 C 18,6 C 5,6 km/h (2 Bft)
17.04.2013 18:00 18,9 C 66 % 1018,9 hPa 0,0 l/m 1,8 km/h (1 Bft) SW 12,4 C 18,9 C 4,8 km/h (1 Bft)
17.04.2013 19:00 18,4 C 68 % 1018,4 hPa 0,0 l/m 1,0 km/h (0 Bft) S 12,4 C 18,4 C 2,9 km/h (1 Bft)
17.04.2013 20:00 16,5 C 75 % 1018,1 hPa 0,0 l/m 0,5 km/h (0 Bft) SO 12,0 C 16,5 C 1,3 km/h (1 Bft)
17.04.2013 21:00 14,0 C 85 % 1017,8 hPa 0,0 l/m 0,5 km/h (0 Bft) O-SO 11,5 C 14,0 C 0,9 km/h (0 Bft)
17.04.2013 22:00 13,4 C 86 % 1017,0 hPa 0,0 l/m 0,0 km/h (0 Bft) N 11,1 C 13,4 C 0,0 km/h (0 Bft)
17.04.2013 23:00 13,4 C 86 % 1016,3 hPa 0,0 l/m 0,0 km/h (0 Bft) N 11,0 C 13,4 C 0,0 km/h (0 Bft)
18.04.2013 00:00 13,3 C 85 % 1015,8 hPa 0,0 l/m 0,0 km/h (0 Bft) N 10,8 C 13,3 C 0,0 km/h (0 Bft)
18.04.2013 01:00 13,1 C 85 % 1015,0 hPa 0,0 l/m 0,0 km/h (0 Bft) N 10,7 C 13,1 C 0,0 km/h (0 Bft)
18.04.2013 02:00 14,1 C 82 % 1014,1 hPa 0,0 l/m 0,6 km/h (0 Bft) S-SO 11,0 C 14,1 C 2,4 km/h (1 Bft)
18.04.2013 03:00 14,2 C 81 % 1013,1 hPa 0,0 l/m 2,1 km/h (1 Bft) S-SO 10,9 C 14,2 C 5,6 km/h (2 Bft)
18.04.2013 04:00 13,3 C 83 % 1012,4 hPa 0,0 l/m 0,6 km/h (0 Bft) SO 10,4 C 13,3 C 2,4 km/h (1 Bft)
18.04.2013 05:00 12,4 C 86 % 1011,4 hPa 0,0 l/m 0,8 km/h (0 Bft) S-SW 10,1 C 12,4 C 3,1 km/h (1 Bft)
18.04.2013 06:00 13,4 C 82 % 1010,6 hPa 0,0 l/m 1,8 km/h (1 Bft) SO 10,4 C 13,4 C 4,8 km/h (1 Bft)
19.04.2013 16:00 12,8 C 56 % 1022,1 hPa 0,0 l/m 7,4 km/h (2 Bft) W-NW 4,2 C 12,0 C 17,7 km/h (3 Bft)
19.04.2013 17:00 11,8 C 65 % 1022,5 hPa 0,2 l/m 6,2 km/h (2 Bft) W-NW 5,3 C 11,2 C 13,0 km/h (3 Bft)
19.04.2013 18:00 11,1 C 69 % 1023,2 hPa 0,0 l/m 12,6 km/h (3 Bft) NW 5,6 C 7,6 C 21,4 km/h (4 Bft)
19.04.2013 19:00 10,5 C 70 % 1023,9 hPa 0,0 l/m 8,2 km/h (2 Bft) NW 5,3 C 9,2 C 14,8 km/h (3 Bft)
19.04.2013 20:00 9,2 C 77 % 1024,9 hPa 0,0 l/m 6,7 km/h (2 Bft) NW 5,4 C 8,8 C 12,2 km/h (2 Bft)
19.04.2013 21:00 8,2 C 82 % 1025,6 hPa 0,0 l/m 6,8 km/h (2 Bft) NW 5,2 C 7,9 C 12,2 km/h (2 Bft)
19.04.2013 22:00 7,1 C 83 % 1026,3 hPa 0,0 l/m 4,7 km/h (1 Bft) NW 4,4 C 7,1 C 9,3 km/h (2 Bft)
19.04.2013 23:00 6,3 C 81 % 1027,2 hPa 0,0 l/m 4,7 km/h (1 Bft) NW 3,3 C 6,2 C 9,1 km/h (2 Bft)
20.04.2013 00:00 5,4 C 82 % 1027,9 hPa 0,0 l/m 2,8 km/h (1 Bft) NW 2,5 C 5,4 C 6,7 km/h (2 Bft)
20.04.2013 01:00 4,5 C 83 % 1028,6 hPa 0,0 l/m 2,8 km/h (1 Bft) W-NW 1,8 C 4,5 C 6,8 km/h (2 Bft)
20.04.2013 02:00 3,4 C 86 % 1029,0 hPa 0,0 l/m 2,9 km/h (1 Bft) NW 1,4 C 3,4 C 6,9 km/h (2 Bft)
20.04.2013 03:00 2,6 C 91 % 1029,5 hPa 0,0 l/m 2,9 km/h (1 Bft) NW 1,2 C 2,6 C 6,0 km/h (2 Bft)
20.04.2013 04:00 1,8 C 93 % 1029,9 hPa 0,0 l/m 1,7 km/h (1 Bft) NW 0,7 C 1,8 C 4,0 km/h (1 Bft)
20.04.2013 05:00 1,1 C 93 % 1030,1 hPa 0,0 l/m 1,3 km/h (1 Bft) NW 0,2 C 1,1 C 2,8 km/h (1 Bft)
20.04.2013 06:00 0,8 C 94 % 1030,7 hPa 0,0 l/m 0,5 km/h (0 Bft) NW 0,0 C 0,8 C 1,2 km/h (1 Bft)
20.04.2013 07:00 1,1 C 95 % 1031,2 hPa 0,0 l/m 4,9 km/h (1 Bft) NW 0,3 C 1,1 C 7,9 km/h (2 Bft)
20.04.2013 08:00 2,8 C 94 % 1031,5 hPa 0,0 l/m 6,9 km/h (2 Bft) N-NW 1,9 C 2,2 C 11,4 km/h (2 Bft)
20.04.2013 09:00 5,2 C 84 % 1031,5 hPa 0,0 l/m 9,7 km/h (2 Bft) N-NW 2,7 C 2,7 C 16,6 km/h (3 Bft)
20.04.2013 10:00 6,6 C 72 % 1031,6 hPa 0,0 l/m 11,2 km/h (2 Bft) N-NO 1,8 C 3,1 C 17,6 km/h (3 Bft)
20.04.2013 11:00 7,3 C 66 % 1031,6 hPa 0,0 l/m 10,6 km/h (2 Bft) N-NW 1,3 C 4,4 C 16,4 km/h (3 Bft)
20.04.2013 12:00 8,8 C 60 % 1031,2 hPa 0,0 l/m 9,8 km/h (2 Bft) N-NW 1,6 C 6,5 C 17,4 km/h (3 Bft)
20.04.2013 13:00 9,7 C 57 % 1030,7 hPa 0,0 l/m 11,0 km/h (2 Bft) N-NO 1,6 C 6,7 C 21,0 km/h (4 Bft)
20.04.2013 14:00 10,5 C 53 % 1030,5 hPa 0,0 l/m 10,8 km/h (2 Bft) N-NO 1,4 C 7,9 C 19,4 km/h (3 Bft)
20.04.2013 15:00 11,0 C 51 % 1029,9 hPa 0,0 l/m 9,7 km/h (2 Bft) NO 1,3 C 8,9 C 20,5 km/h (4 Bft)
20.04.2013 16:00 11,7 C 50 % 1029,3 hPa 0,0 l/m 8,3 km/h (2 Bft) NO 1,7 C 10,4 C 15,4 km/h (3 Bft)
20.04.2013 17:00 11,6 C 50 % 1029,0 hPa 0,0 l/m 8,9 km/h (2 Bft) NO 1,6 C 10,1 C 15,6 km/h (3 Bft)
20.04.2013 18:00 10,9 C 50 % 1028,8 hPa 0,0 l/m 7,5 km/h (2 Bft) NO 0,9 C 10,1 C 13,2 km/h (3 Bft)
20.04.2013 19:00 10,3 C 52 % 1028,7 hPa 0,0 l/m 7,5 km/h (2 Bft) NO 1,0 C 9,6 C 13,0 km/h (3 Bft)
20.04.2013 20:00 7,7 C 63 % 1028,7 hPa 0,0 l/m 2,4 km/h (1 Bft) NO 1,1 C 7,7 C 4,3 km/h (1 Bft)
20.04.2013 21:00 5,2 C 78 % 1028,9 hPa 0,0 l/m 0,0 km/h (0 Bft) N 1,6 C 5,2 C 0,0 km/h (0 Bft)
20.04.2013 22:00 3,9 C 83 % 1028,8 hPa 0,0 l/m 0,0 km/h (0 Bft) N 1,2 C 3,9 C 0,0 km/h (0 Bft)
20.04.2013 23:00 3,0 C 85 % 1028,5 hPa 0,0 l/m 0,9 km/h (0 Bft) N-NO 0,7 C 3,0 C 1,6 km/h (1 Bft)
21.04.2013 00:00 3,5 C 84 % 1028,1 hPa 0,0 l/m 4,5 km/h (1 Bft) N-NO 1,1 C 3,5 C 6,8 km/h (2 Bft)
21.04.2013 01:00 3,0 C 87 % 1027,7 hPa 0,0 l/m 3,5 km/h (1 Bft) N-NO 1,0 C 3,0 C 5,5 km/h (2 Bft)
21.04.2013 02:00 2,7 C 88 % 1027,4 hPa 0,0 l/m 2,1 km/h (1 Bft) NO 0,9 C 2,7 C 3,3 km/h (1 Bft)
21.04.2013 03:00 2,1 C 90 % 1027,0 hPa 0,0 l/m 0,5 km/h (0 Bft) N-NO 0,6 C 2,1 C 0,8 km/h (0 Bft)
21.04.2013 04:00 1,4 C 91 % 1026,3 hPa 0,0 l/m 1,6 km/h (1 Bft) N 0,1 C 1,4 C 2,5 km/h (1 Bft)
21.04.2013 05:00 0,6 C 93 % 1025,8 hPa 0,0 l/m 1,6 km/h (1 Bft) N-NO -0,5 C 0,6 C 2,8 km/h (1 Bft)
21.04.2013 06:00 1,1 C 93 % 1025,4 hPa 0,0 l/m 2,7 km/h (1 Bft) NO 0,1 C 1,1 C 4,3 km/h (1 Bft)
21.04.2013 07:00 2,7 C 91 % 1025,1 hPa 0,0 l/m 5,5 km/h (2 Bft) NO 1,4 C 2,6 C 9,1 km/h (2 Bft)
21.04.2013 08:00 4,1 C 87 % 1024,7 hPa 0,0 l/m 6,7 km/h (2 Bft) O-NO 2,1 C 3,9 C 11,2 km/h (2 Bft)
21.04.2013 09:00 5,8 C 82 % 1024,2 hPa 0,0 l/m 5,2 km/h (1 Bft) O 2,9 C 5,8 C 9,8 km/h (2 Bft)
21.04.2013 10:00 8,5 C 73 % 1023,6 hPa 0,0 l/m 5,5 km/h (2 Bft) O 3,9 C 8,5 C 9,9 km/h (2 Bft)
21.04.2013 11:00 10,5 C 69 % 1022,8 hPa 0,0 l/m 7,7 km/h (2 Bft) O-NO 5,1 C 9,6 C 13,7 km/h (3 Bft)
21.04.2013 12:00 12,8 C 62 % 1021,7 hPa 0,0 l/m 10,6 km/h (2 Bft) NO 5,7 C 10,4 C 17,8 km/h (3 Bft)
21.04.2013 13:00 13,5 C 53 % 1020,9 hPa 0,0 l/m 8,9 km/h (2 Bft) O 4,1 C 12,1 C 17,7 km/h (3 Bft)
21.04.2013 14:00 14,4 C 51 % 1019,8 hPa 0,0 l/m 8,8 km/h (2 Bft) O 4,3 C 13,1 C 15,7 km/h (3 Bft)
21.04.2013 15:00 15,0 C 50 % 1018,7 hPa 0,0 l/m 9,8 km/h (2 Bft) O 4,8 C 13,2 C 18,5 km/h (3 Bft)
21.04.2013 16:00 15,5 C 49 % 1017,8 hPa 0,0 l/m 9,5 km/h (2 Bft) O 4,7 C 13,9 C 17,4 km/h (3 Bft)
21.04.2013 17:00 15,5 C 48 % 1017,1 hPa 0,0 l/m 7,9 km/h (2 Bft) O 4,4 C 14,8 C 15,3 km/h (3 Bft)
21.04.2013 18:00 14,9 C 48 % 1016,7 hPa 0,0 l/m 6,4 km/h (2 Bft) O 4,0 C 14,6 C 11,8 km/h (2 Bft)
21.04.2013 19:00 13,9 C 54 % 1016,6 hPa 0,0 l/m 2,9 km/h (1 Bft) O-SO 4,7 C 13,9 C 5,9 km/h (2 Bft)
21.04.2013 20:00 12,8 C 59 % 1016,5 hPa 0,0 l/m 0,4 km/h (0 Bft) O-SO 4,9 C 12,8 C 1,3 km/h (1 Bft)
21.04.2013 21:00 12,0 C 61 % 1016,4 hPa 0,0 l/m 0,5 km/h (0 Bft) O 4,6 C 12,0 C 1,9 km/h (1 Bft)
21.04.2013 22:00 11,1 C 69 % 1016,2 hPa 0,0 l/m 0,0 km/h (0 Bft) N 5,6 C 11,1 C 0,0 km/h (0 Bft)
21.04.2013 23:00 10,6 C 72 % 1015,7 hPa 0,0 l/m 0,0 km/h (0 Bft) N 5,7 C 10,6 C 0,1 km/h (0 Bft)
Min-Datum _ 21.04.13 15.04.13 18.04.13 - 15.04.13 - 21.04.13 20.04.13 15.04.13
_ Min-Zeit 05:15 16:15 06:45 - 02:00 - 05:15 09:20 02:00
Minimum _ 0,3 C 37 % 1010,4 hPa - 0,0 km/h (0 Bft) - -0,8 C 0,1 C 0,0 km/h (0 Bft)
Max-Datum _ 15.04.13 16.04.13 20.04.13 15.04.13 19.04.13 - 16.04.13 15.04.13 19.04.13
_ Max-Zeit 16:15 09:15 10:30 22:25 18:00 - 11:15 16:15 18:05
Maximum _ 26,1 C 98 % 1031,7 hPa 3,8 l/m 20,9 km/h
NW (4 Bft)
- 14,1 C 26,1 C 33,8 km/h
NW (5 Bft)
Durchschnitt _ 12,2 C 74 % 1021,6 hPa #4,2 l/m 4,0 km/h (1 Bft) NW 7,3 C 11,8 C 7,8 km/h (2 Bft)